Time;durP1;ratioP1;P1;durP2;ratioP2;P2;SDS_P1;SDS_P2;PMS_P1;PMS_P2;Temp;Humidity;BMP_temperature;BMP_pressure;BME280_temperature;BME280_humidity;BME280_pressure;Samples;Min_cycle;Max_cycle;Signal;HPM_P1;HPM_P2
2023/06/18 00:00:39;;;;;;;13.48;11.20;;;22.00;60.70;;;;;;5043844;28;20033;-74
2023/06/18 00:03:05;;;;;;;12.80;11.35;;;22.00;61.10;;;;;;5046430;28;20048;-74
2023/06/18 00:05:31;;;;;;;13.85;11.23;;;22.00;61.20;;;;;;5038223;28;20025;-73
2023/06/18 00:07:57;;;;;;;14.02;11.95;;;21.90;61.50;;;;;;5041857;28;20048;-75
2023/06/18 00:10:22;;;;;;;13.40;11.70;;;21.80;61.80;;;;;;5039966;28;20034;-75
2023/06/18 00:12:48;;;;;;;13.07;11.38;;;21.80;62.10;;;;;;5042508;28;20085;-75
2023/06/18 00:15:14;;;;;;;13.85;12.25;;;21.80;62.30;;;;;;5040947;28;20462;-75
2023/06/18 00:17:40;;;;;;;15.75;13.05;;;21.70;62.60;;;;;;5044470;28;20471;-75
2023/06/18 00:20:06;;;;;;;15.63;12.20;;;21.60;62.90;;;;;;5038993;28;20026;-74
2023/06/18 00:22:36;;;;;;;13.43;12.02;;;21.60;63.10;;;;;;5042898;28;20136;-75
2023/06/18 00:25:02;;;;;;;16.13;12.45;;;21.50;63.50;;;;;;5038172;28;20029;-74
2023/06/18 00:27:27;;;;;;;14.57;12.85;;;21.50;63.80;;;;;;5043869;28;20037;-74
2023/06/18 00:29:53;;;;;;;15.57;12.93;;;21.40;64.00;;;;;;5040840;28;20036;-74
2023/06/18 00:32:19;;;;;;;14.95;12.52;;;21.40;64.20;;;;;;5040163;28;20033;-75
2023/06/18 00:34:46;;;;;;;14.30;12.75;;;21.40;64.30;;;;;;5039081;28;20033;-75
2023/06/18 00:37:12;;;;;;;14.68;13.23;;;21.30;64.40;;;;;;5042165;28;20481;-74
2023/06/18 00:39:38;;;;;;;16.38;14.68;;;21.30;64.50;;;;;;5041330;28;20116;-75
2023/06/18 00:42:10;;;;;;;17.10;13.55;;;21.30;64.50;;;;;;5047568;28;20029;-75
2023/06/18 00:44:40;;;;;;;14.32;12.82;;;21.30;64.60;;;;;;5043075;28;20021;-75
2023/06/18 00:47:07;;;;;;;16.88;14.73;;;21.30;64.70;;;;;;5041542;28;20537;-74
2023/06/18 00:49:33;;;;;;;14.15;12.70;;;21.20;64.60;;;;;;5043321;28;20033;-75
2023/06/18 00:52:00;;;;;;;14.90;13.30;;;21.20;64.80;;;;;;5042704;28;20037;-74
2023/06/18 00:54:30;;;;;;;16.15;14.65;;;21.10;64.90;;;;;;5042526;28;20049;-75
2023/06/18 00:56:59;;;;;;;14.27;12.82;;;21.10;65.00;;;;;;5032386;28;20359;-74
2023/06/18 00:59:25;;;;;;;16.85;15.13;;;21.10;65.10;;;;;;5030856;28;20120;-75
2023/06/18 01:01:55;;;;;;;15.73;14.02;;;21.00;65.20;;;;;;5037340;28;20405;-74
2023/06/18 01:04:27;;;;;;;15.98;13.50;;;21.00;65.20;;;;;;5040550;28;20063;-75
2023/06/18 01:06:54;;;;;;;16.33;14.15;;;21.00;65.30;;;;;;5034127;28;20057;-75
2023/06/18 01:09:24;;;;;;;16.10;14.50;;;21.00;65.50;;;;;;5043618;28;20021;-75
2023/06/18 01:11:53;;;;;;;15.75;14.15;;;21.00;65.30;;;;;;5035024;28;20488;-74
2023/06/18 01:14:25;;;;;;;15.48;13.98;;;20.90;65.40;;;;;;5041925;28;20115;-75
2023/06/18 01:16:54;;;;;;;15.45;13.82;;;20.90;65.50;;;;;;5035487;28;20044;-75
2023/06/18 01:19:42;;;;;;;15.80;14.23;;;20.80;65.50;;;;;;5035739;28;20032;-75
2023/06/18 01:22:38;;;;;;;16.45;14.85;;;20.80;65.50;;;;;;5039212;28;20040;-75
2023/06/18 01:25:06;;;;;;;15.13;13.52;;;20.80;65.50;;;;;;5039011;28;20059;-75
2023/06/18 01:27:40;;;;;;;14.25;12.68;;;20.80;65.50;;;;;;5040901;28;20045;-75
2023/06/18 01:30:08;;;;;;;15.10;13.57;;;20.80;65.60;;;;;;5037044;28;20028;-75
2023/06/18 01:32:36;;;;;;;16.02;14.32;;;20.70;65.50;;;;;;5033577;28;20137;-75
2023/06/18 01:35:03;;;;;;;14.15;12.43;;;20.70;65.30;;;;;;5035946;28;20555;-75
2023/06/18 01:37:31;;;;;;;15.10;13.48;;;20.70;65.50;;;;;;5043163;28;20116;-75
2023/06/18 01:40:03;;;;;;;16.52;13.57;;;20.70;65.60;;;;;;5037511;28;20057;-75
2023/06/18 01:42:35;;;;;;;15.82;14.20;;;20.70;65.50;;;;;;5033041;28;21093;-74
2023/06/18 01:45:12;;;;;;;16.20;12.75;;;20.70;65.30;;;;;;5040921;28;20068;-75
2023/06/18 01:47:40;;;;;;;15.30;13.77;;;20.60;65.40;;;;;;5028821;28;20045;-75
2023/06/18 01:50:07;;;;;;;15.73;14.07;;;20.60;65.60;;;;;;5038512;28;20031;-75
2023/06/18 01:52:37;;;;;;;15.60;14.00;;;20.60;65.60;;;;;;5026654;28;20038;-75
2023/06/18 01:55:03;;;;;;;17.67;15.65;;;20.60;65.50;;;;;;5033710;28;20384;-75
2023/06/18 01:57:33;;;;;;;17.75;15.90;;;20.60;65.50;;;;;;5037815;28;20776;-75
2023/06/18 01:59:58;;;;;;;17.10;15.23;;;20.60;65.80;;;;;;5028326;28;20052;-75
2023/06/18 02:02:25;;;;;;;16.08;14.48;;;20.60;65.90;;;;;;5038704;28;20425;-75
2023/06/18 02:04:50;;;;;;;16.85;15.15;;;20.50;65.90;;;;;;5043826;28;20033;-75
2023/06/18 02:07:16;;;;;;;18.70;16.55;;;20.50;65.90;;;;;;5031709;28;20048;-75
2023/06/18 02:09:42;;;;;;;15.82;14.30;;;20.50;66.10;;;;;;5040652;28;20041;-75
2023/06/18 02:12:08;;;;;;;16.58;14.93;;;20.40;66.20;;;;;;5039859;28;20041;-75
2023/06/18 02:14:34;;;;;;;16.92;15.18;;;20.50;66.30;;;;;;5039462;28;20048;-75
2023/06/18 02:16:59;;;;;;;16.20;14.00;;;20.40;66.40;;;;;;5028466;28;20383;-75
2023/06/18 02:19:25;;;;;;;17.73;15.93;;;20.40;66.40;;;;;;5042239;28;20037;-75
2023/06/18 02:21:52;;;;;;;15.45;13.90;;;20.50;66.30;;;;;;5039354;28;20561;-74
2023/06/18 02:24:19;;;;;;;17.27;15.55;;;20.50;66.20;;;;;;5035815;28;20025;-75
2023/06/18 02:26:45;;;;;;;16.75;14.82;;;20.50;66.40;;;;;;5032905;28;20059;-75
2023/06/18 02:29:10;;;;;;;15.68;14.07;;;20.50;66.30;;;;;;5042355;28;20018;-75
2023/06/18 02:31:36;;;;;;;16.50;14.80;;;20.60;66.10;;;;;;5036905;28;20388;-74
2023/06/18 02:34:02;;;;;;;19.48;16.60;;;20.60;65.70;;;;;;5038069;28;20040;-75
2023/06/18 02:36:28;;;;;;;17.55;15.75;;;20.60;65.30;;;;;;5031371;28;20040;-75
2023/06/18 02:38:55;;;;;;;16.38;14.70;;;20.60;65.00;;;;;;5041135;28;20638;-75
2023/06/18 02:41:21;;;;;;;16.50;14.65;;;20.60;65.20;;;;;;5035195;28;20033;-74
2023/06/18 02:43:49;;;;;;;16.10;14.50;;;20.60;65.00;;;;;;5040133;28;20729;-75
2023/06/18 02:46:18;;;;;;;16.58;14.88;;;20.60;64.80;;;;;;5035492;28;20040;-75
2023/06/18 02:48:44;;;;;;;15.15;13.75;;;20.60;64.80;;;;;;5031725;28;20034;-75
2023/06/18 02:51:10;;;;;;;17.88;16.08;;;20.60;64.80;;;;;;5040684;28;20104;-74
2023/06/18 02:53:36;;;;;;;17.42;15.73;;;20.60;64.80;;;;;;5041134;28;20111;-74
2023/06/18 02:56:02;;;;;;;18.00;15.52;;;20.60;65.00;;;;;;5039727;28;20029;-74
2023/06/18 02:58:28;;;;;;;18.17;15.43;;;20.60;64.80;;;;;;5035993;28;20022;-75
2023/06/18 03:00:59;;;;;;;17.83;15.98;;;20.60;64.70;;;;;;5039289;28;20526;-74
2023/06/18 03:03:24;;;;;;;18.15;15.77;;;20.70;64.50;;;;;;5042309;28;20469;-74
2023/06/18 03:05:50;;;;;;;20.08;16.40;;;20.70;65.10;;;;;;5035430;28;20029;-74
2023/06/18 03:08:17;;;;;;;20.92;17.70;;;20.60;66.70;;;;;;5039414;28;20037;-74
2023/06/18 03:10:43;;;;;;;20.25;17.58;;;20.50;69.20;;;;;;5031498;28;20017;-74
2023/06/18 03:13:09;;;;;;;22.20;19.88;;;20.40;70.40;;;;;;5033534;28;20034;-74
2023/06/18 03:15:34;;;;;;;19.98;18.05;;;20.30;70.90;;;;;;5036804;28;20052;-74
2023/06/18 03:18:00;;;;;;;21.67;19.45;;;20.20;71.10;;;;;;5030742;28;20434;-74
2023/06/18 03:20:27;;;;;;;24.58;19.35;;;20.30;71.90;;;;;;5039890;28;20039;-74
2023/06/18 03:22:53;;;;;;;23.63;19.83;;;20.20;72.70;;;;;;5031626;28;20123;-73
2023/06/18 03:25:19;;;;;;;22.83;19.27;;;20.10;74.00;;;;;;5034465;28;20033;-73
2023/06/18 03:27:45;;;;;;;20.60;18.40;;;20.10;75.30;;;;;;5039613;28;20438;-81
2023/06/18 03:30:12;;;;;;;25.45;21.02;;;20.10;76.40;;;;;;5033666;28;20545;-81
2023/06/18 03:32:37;;;;;;;21.73;19.50;;;20.30;78.00;;;;;;5032937;28;20153;-79
2023/06/18 03:35:04;;;;;;;22.05;19.50;;;20.30;77.30;;;;;;5033120;28;20105;-80
2023/06/18 03:37:30;;;;;;;22.63;20.30;;;20.40;78.40;;;;;;5034398;28;20092;-80
2023/06/18 03:39:56;;;;;;;24.33;21.73;;;20.50;78.60;;;;;;5028376;28;20029;-80
2023/06/18 03:42:22;;;;;;;22.08;19.98;;;20.50;78.50;;;;;;5041817;28;20099;-80
2023/06/18 03:44:47;;;;;;;22.45;20.15;;;20.60;78.80;;;;;;5036931;28;20052;-80
2023/06/18 03:47:13;;;;;;;21.75;18.85;;;20.60;78.70;;;;;;5032647;28;20107;-80
2023/06/18 03:49:39;;;;;;;22.67;20.35;;;20.60;78.90;;;;;;5037392;28;20484;-80
2023/06/18 03:52:05;;;;;;;22.70;20.40;;;20.60;78.60;;;;;;5037642;28;20041;-79
2023/06/18 03:54:31;;;;;;;23.58;21.17;;;20.60;79.10;;;;;;5038916;28;20025;-81
2023/06/18 03:56:58;;;;;;;23.38;20.98;;;20.60;79.50;;;;;;5034991;28;20619;-80
2023/06/18 03:59:23;;;;;;;25.63;23.10;;;20.60;80.10;;;;;;5036168;28;20021;-80
2023/06/18 04:01:50;;;;;;;22.80;20.35;;;20.60;80.10;;;;;;5034210;28;20512;-75
2023/06/18 04:04:15;;;;;;;24.42;21.35;;;20.50;79.40;;;;;;5040470;28;20082;-75
2023/06/18 04:06:41;;;;;;;23.38;21.17;;;20.40;79.00;;;;;;5035305;28;20420;-75
2023/06/18 04:09:08;;;;;;;26.20;23.13;;;20.30;79.20;;;;;;5039593;28;20048;-75
2023/06/18 04:11:36;;;;;;;23.10;20.75;;;20.30;79.60;;;;;;5040377;28;20045;-75
2023/06/18 04:14:02;;;;;;;25.60;22.85;;;20.20;79.60;;;;;;5039290;28;20051;-75
2023/06/18 04:16:28;;;;;;;23.38;21.08;;;20.10;79.80;;;;;;5024155;28;20033;-75
2023/06/18 04:18:54;;;;;;;24.48;22.05;;;20.10;80.10;;;;;;5034604;28;20052;-75
2023/06/18 04:21:20;;;;;;;24.60;22.17;;;20.10;80.60;;;;;;5033442;28;20385;-75
2023/06/18 04:23:46;;;;;;;25.33;22.88;;;20.10;80.80;;;;;;5035190;28;20098;-74
2023/06/18 04:26:12;;;;;;;25.90;23.23;;;20.10;81.30;;;;;;5034194;28;20412;-75
2023/06/18 04:28:38;;;;;;;25.88;23.35;;;20.10;81.70;;;;;;5037091;28;20049;-75
2023/06/18 04:31:03;;;;;;;26.10;23.70;;;20.00;81.50;;;;;;5038948;28;20026;-74
2023/06/18 04:33:29;;;;;;;25.42;22.95;;;20.10;81.40;;;;;;5042923;28;20382;-74
2023/06/18 04:35:55;;;;;;;27.90;23.95;;;20.00;81.50;;;;;;5044636;28;20028;-75
2023/06/18 04:38:21;;;;;;;23.83;21.52;;;20.10;81.70;;;;;;5039145;28;20507;-75
2023/06/18 04:40:48;;;;;;;24.30;22.00;;;20.00;81.30;;;;;;5038424;28;20028;-75
2023/06/18 04:43:14;;;;;;;24.85;22.20;;;19.90;81.00;;;;;;5042509;28;20056;-74
2023/06/18 04:45:39;;;;;;;22.52;20.27;;;19.90;80.50;;;;;;5037136;28;20397;-75
2023/06/18 04:48:05;;;;;;;23.45;20.88;;;19.90;80.10;;;;;;5034763;28;21344;-74
2023/06/18 04:50:31;;;;;;;21.45;19.45;;;19.90;80.20;;;;;;5039666;28;20025;-74
2023/06/18 04:52:56;;;;;;;21.40;19.23;;;19.90;80.20;;;;;;5036937;28;20128;-74
2023/06/18 04:55:22;;;;;;;20.40;18.38;;;19.90;80.30;;;;;;5040856;28;20037;-74
2023/06/18 04:57:48;;;;;;;22.40;20.05;;;20.00;80.30;;;;;;5042205;28;20528;-74
2023/06/18 05:00:16;;;;;;;19.35;17.33;;;20.00;80.60;;;;;;5041851;28;20025;-74
2023/06/18 05:02:41;;;;;;;18.90;17.10;;;20.00;79.70;;;;;;5033304;28;20557;-74
2023/06/18 05:05:08;;;;;;;17.83;16.13;;;20.00;79.00;;;;;;5038217;28;20026;-74
2023/06/18 05:07:33;;;;;;;18.45;16.33;;;20.00;78.60;;;;;;5039451;28;20052;-75
2023/06/18 05:09:59;;;;;;;18.20;16.17;;;20.00;78.60;;;;;;5034829;28;20033;-74
2023/06/18 05:12:25;;;;;;;17.02;15.20;;;20.10;78.50;;;;;;5037563;28;20637;-74
2023/06/18 05:14:50;;;;;;;16.20;14.65;;;20.10;78.30;;;;;;5037933;28;20442;-74
2023/06/18 05:17:17;;;;;;;16.08;14.38;;;20.10;78.20;;;;;;5039682;28;20033;-75
2023/06/18 05:19:42;;;;;;;16.25;14.52;;;20.10;78.10;;;;;;5044318;28;20506;-74
2023/06/18 05:22:08;;;;;;;15.57;13.98;;;20.20;77.80;;;;;;5043259;28;20126;-74
2023/06/18 05:24:34;;;;;;;15.75;14.20;;;20.30;77.50;;;;;;5037006;28;20063;-74
2023/06/18 05:26:59;;;;;;;15.07;13.45;;;20.30;77.50;;;;;;5034711;28;20055;-74
2023/06/18 05:29:25;;;;;;;18.30;13.48;;;20.40;77.30;;;;;;5035235;28;20377;-75
2023/06/18 05:31:51;;;;;;;15.98;14.27;;;20.40;77.30;;;;;;5035448;28;20037;-74
2023/06/18 05:34:16;;;;;;;17.67;14.57;;;20.40;77.20;;;;;;5039900;28;20031;-74
2023/06/18 05:36:42;;;;;;;14.80;13.18;;;20.40;77.30;;;;;;5033615;28;20561;-75
2023/06/18 05:39:07;;;;;;;15.75;13.57;;;20.40;77.50;;;;;;5043542;28;20036;-74
2023/06/18 05:41:33;;;;;;;15.15;13.55;;;20.40;77.40;;;;;;5040070;28;20045;-75
2023/06/18 05:43:59;;;;;;;14.38;12.88;;;20.30;77.20;;;;;;5041681;28;20392;-75
2023/06/18 05:46:24;;;;;;;15.00;13.30;;;20.30;76.90;;;;;;5031843;28;20037;-74
2023/06/18 05:48:50;;;;;;;14.57;12.55;;;20.30;77.10;;;;;;5035028;28;20453;-75
2023/06/18 05:51:16;;;;;;;16.35;13.52;;;20.30;77.20;;;;;;5040995;28;20025;-75
2023/06/18 05:53:41;;;;;;;13.50;11.95;;;20.30;77.50;;;;;;5040836;28;20535;-75
2023/06/18 05:56:07;;;;;;;14.35;12.93;;;20.40;77.10;;;;;;5038682;28;20025;-75
2023/06/18 05:58:33;;;;;;;13.77;12.30;;;20.30;76.90;;;;;;5042318;28;20029;-75
2023/06/18 06:00:58;;;;;;;14.02;12.63;;;20.30;77.00;;;;;;5036470;28;20225;-75
2023/06/18 06:03:25;;;;;;;14.35;12.85;;;20.30;76.90;;;;;;5036453;28;20452;-74
2023/06/18 06:05:50;;;;;;;15.82;13.77;;;20.30;77.40;;;;;;5042421;28;20028;-75
2023/06/18 06:08:16;;;;;;;14.18;12.40;;;20.40;77.30;;;;;;5037499;28;20029;-74
2023/06/18 06:10:43;;;;;;;14.57;13.07;;;20.40;77.30;;;;;;5034429;28;20043;-75
2023/06/18 06:13:09;;;;;;;14.32;12.88;;;20.50;77.60;;;;;;5037061;28;20029;-75
2023/06/18 06:15:35;;;;;;;14.70;13.10;;;20.50;78.20;;;;;;5037188;28;20053;-74
2023/06/18 06:18:01;;;;;;;14.02;12.63;;;20.60;78.40;;;;;;5036870;28;20106;-75
2023/06/18 06:20:27;;;;;;;14.98;12.50;;;20.60;79.10;;;;;;5036701;28;20127;-75
2023/06/18 06:22:52;;;;;;;14.13;12.27;;;20.60;79.00;;;;;;5041418;28;20120;-75
2023/06/18 06:25:18;;;;;;;13.57;12.18;;;20.60;78.80;;;;;;5042875;28;20060;-75
2023/06/18 06:27:44;;;;;;;15.45;12.00;;;20.60;78.50;;;;;;5033639;28;20534;-74
2023/06/18 06:30:10;;;;;;;13.70;12.00;;;20.60;78.20;;;;;;5035552;28;20094;-74
2023/06/18 06:32:36;;;;;;;13.48;12.07;;;20.50;77.80;;;;;;5042387;28;20036;-74
2023/06/18 06:35:03;;;;;;;13.75;12.27;;;20.50;77.60;;;;;;5042889;28;20029;-74
2023/06/18 06:37:29;;;;;;;13.38;10.98;;;20.50;77.30;;;;;;5037934;28;20452;-74
2023/06/18 06:39:55;;;;;;;13.43;11.43;;;20.50;77.10;;;;;;5034319;28;20030;-74
2023/06/18 06:42:21;;;;;;;13.02;11.25;;;20.50;77.20;;;;;;5034025;28;20033;-74
2023/06/18 06:44:47;;;;;;;13.30;11.90;;;20.50;77.60;;;;;;5037375;28;20070;-75
2023/06/18 06:47:13;;;;;;;13.85;12.35;;;20.60;78.10;;;;;;5033247;28;20056;-74
2023/06/18 06:49:38;;;;;;;15.18;12.15;;;20.60;78.00;;;;;;5040596;28;20036;-74
2023/06/18 06:52:04;;;;;;;13.40;12.00;;;20.60;78.00;;;;;;5043532;28;20351;-74
2023/06/18 06:54:30;;;;;;;13.88;12.40;;;20.60;78.30;;;;;;5037058;28;20029;-75
2023/06/18 06:56:55;;;;;;;13.65;11.75;;;20.60;78.50;;;;;;5040311;28;20154;-74
2023/06/18 06:59:21;;;;;;;12.77;11.35;;;20.60;78.90;;;;;;5038394;28;20040;-75
2023/06/18 07:01:47;;;;;;;11.75;10.60;;;20.60;78.80;;;;;;5038432;28;20058;-74
2023/06/18 07:04:13;;;;;;;13.05;10.90;;;20.60;78.90;;;;;;5043534;28;20342;-75
2023/06/18 07:06:39;;;;;;;14.90;12.35;;;20.80;78.80;;;;;;5032872;28;20048;-75
2023/06/18 07:09:06;;;;;;;13.65;11.40;;;20.80;78.30;;;;;;5028824;28;20018;-75
2023/06/18 07:11:36;;;;;;;12.88;11.50;;;20.80;78.40;;;;;;5031080;28;20474;-75
2023/06/18 07:14:03;;;;;;;13.00;11.55;;;20.90;78.20;;;;;;5034060;28;20037;-75
2023/06/18 07:16:28;;;;;;;12.35;11.05;;;21.00;78.20;;;;;;5034479;28;20042;-75
2023/06/18 07:18:54;;;;;;;12.63;10.90;;;21.00;78.00;;;;;;5035108;28;20033;-74
2023/06/18 07:21:19;;;;;;;12.38;10.95;;;21.00;77.70;;;;;;5034223;28;20032;-75
2023/06/18 07:23:45;;;;;;;12.10;10.80;;;21.10;78.10;;;;;;5036335;28;20564;-75
2023/06/18 07:26:11;;;;;;;12.05;10.93;;;21.10;78.20;;;;;;5039365;28;20492;-75
2023/06/18 07:28:36;;;;;;;12.07;10.57;;;21.10;77.90;;;;;;5036195;28;20037;-75
2023/06/18 07:31:02;;;;;;;13.00;10.50;;;21.10;78.30;;;;;;5040827;28;20323;-75
2023/06/18 07:33:28;;;;;;;11.80;10.60;;;21.00;77.90;;;;;;5041673;28;20127;-75
2023/06/18 07:35:54;;;;;;;12.60;10.35;;;21.10;78.40;;;;;;5037201;28;20040;-75
2023/06/18 07:38:19;;;;;;;12.25;10.95;;;21.20;78.10;;;;;;5037084;28;20021;-74
2023/06/18 07:40:45;;;;;;;12.00;10.20;;;21.20;78.40;;;;;;5032410;28;20026;-75
2023/06/18 07:43:11;;;;;;;12.88;11.10;;;21.20;77.90;;;;;;5039094;28;20039;-74
2023/06/18 07:45:37;;;;;;;12.15;10.57;;;21.20;78.30;;;;;;5037028;28;20031;-74
2023/06/18 07:48:02;;;;;;;11.77;10.57;;;21.20;78.50;;;;;;5039036;28;20041;-75
2023/06/18 07:50:28;;;;;;;11.50;10.20;;;21.20;78.70;;;;;;5036746;28;20076;-75
2023/06/18 07:52:54;;;;;;;12.75;10.38;;;21.30;79.20;;;;;;5036776;28;20065;-75
2023/06/18 07:55:19;;;;;;;12.02;10.52;;;21.40;79.20;;;;;;5038627;28;20025;-75
2023/06/18 07:57:45;;;;;;;13.60;11.10;;;21.50;79.20;;;;;;5037662;28;20091;-75
2023/06/18 08:00:11;;;;;;;11.55;10.40;;;21.60;78.80;;;;;;5040453;28;20291;-74
2023/06/18 08:02:37;;;;;;;12.15;10.90;;;21.60;78.60;;;;;;5041402;28;20041;-74
2023/06/18 08:05:04;;;;;;;12.10;9.98;;;21.70;78.20;;;;;;5037038;28;20035;-74
2023/06/18 08:07:30;;;;;;;12.20;10.43;;;21.60;77.70;;;;;;5042098;28;20160;-75
2023/06/18 08:09:55;;;;;;;11.52;10.30;;;21.60;77.90;;;;;;5040411;28;20787;-74
2023/06/18 08:12:21;;;;;;;12.38;10.00;;;21.60;77.90;;;;;;5039013;28;20408;-75
2023/06/18 08:14:47;;;;;;;11.73;10.52;;;21.80;78.00;;;;;;5043728;28;20521;-75
2023/06/18 08:17:16;;;;;;;11.82;10.63;;;21.80;77.80;;;;;;5037979;28;20037;-75
2023/06/18 08:19:45;;;;;;;11.85;10.18;;;21.80;78.00;;;;;;5042764;28;20546;-75
2023/06/18 08:22:17;;;;;;;11.70;10.48;;;21.80;77.90;;;;;;5042992;28;20037;-74
2023/06/18 08:24:44;;;;;;;11.25;9.68;;;21.80;77.90;;;;;;5040581;28;20025;-75
2023/06/18 08:27:12;;;;;;;10.40;9.18;;;21.80;78.10;;;;;;5044910;28;20049;-75
2023/06/18 08:29:37;;;;;;;11.35;9.93;;;21.80;78.40;;;;;;5029743;28;20481;-74
2023/06/18 08:32:06;;;;;;;11.27;9.93;;;21.90;78.00;;;;;;5039298;28;20029;-75
2023/06/18 08:34:33;;;;;;;12.25;10.65;;;21.90;78.30;;;;;;5040037;28;20542;-75
2023/06/18 08:36:59;;;;;;;11.43;9.82;;;22.00;78.20;;;;;;5034011;28;20060;-75
2023/06/18 08:39:26;;;;;;;11.13;9.95;;;22.00;78.20;;;;;;5038013;28;20154;-75
2023/06/18 08:42:01;;;;;;;11.60;10.40;;;22.00;78.30;;;;;;5034162;28;20116;-75
2023/06/18 08:44:28;;;;;;;11.85;9.93;;;22.00;78.10;;;;;;5038853;28;20037;-75
2023/06/18 08:47:00;;;;;;;12.27;10.30;;;22.10;78.50;;;;;;5042722;28;20037;-75
2023/06/18 08:49:34;;;;;;;10.55;9.50;;;22.10;78.90;;;;;;5044237;28;20485;-75
2023/06/18 08:52:03;;;;;;;11.40;10.18;;;22.10;78.40;;;;;;5040256;28;20397;-75
2023/06/18 08:54:33;;;;;;;12.20;10.88;;;22.10;78.30;;;;;;5044090;28;20036;-75
2023/06/18 08:57:22;;;;;;;13.38;11.98;;;22.10;78.50;;;;;;5043425;28;20140;-75
2023/06/18 08:59:48;;;;;;;12.13;10.88;;;22.10;79.00;;;;;;5025107;28;20558;-76
2023/06/18 09:02:18;;;;;;;16.75;11.15;;;22.10;79.30;;;;;;5035749;28;20037;-74
2023/06/18 09:04:44;;;;;;;16.33;12.32;;;22.10;79.60;;;;;;5038619;28;20020;-75
2023/06/18 09:07:11;;;;;;;13.55;11.70;;;22.10;79.50;;;;;;5033300;28;20045;-75
2023/06/18 09:09:37;;;;;;;13.00;11.55;;;22.10;79.40;;;;;;5044197;28;20032;-75
2023/06/18 09:12:03;;;;;;;13.45;12.13;;;22.10;80.40;;;;;;5040696;28;20029;-75
2023/06/18 09:14:29;;;;;;;12.73;11.40;;;22.10;79.40;;;;;;5034713;28;20045;-75
2023/06/18 09:16:56;;;;;;;14.68;11.95;;;22.20;79.50;;;;;;5038534;28;20037;-75
2023/06/18 09:19:23;;;;;;;13.85;12.45;;;22.30;79.50;;;;;;5036657;28;20369;-75
2023/06/18 09:21:49;;;;;;;13.75;12.35;;;22.50;78.70;;;;;;5040983;28;20466;-75
2023/06/18 09:24:16;;;;;;;13.18;11.88;;;22.50;79.90;;;;;;5038203;28;20087;-75
2023/06/18 09:26:42;;;;;;;14.25;12.77;;;22.60;79.20;;;;;;5037524;28;20036;-75
2023/06/18 09:29:08;;;;;;;14.77;13.27;;;22.70;78.70;;;;;;5042426;28;20071;-75
2023/06/18 09:31:37;;;;;;;14.80;12.65;;;22.80;78.60;;;;;;5042527;28;20060;-75
2023/06/18 09:34:17;;;;;;;15.40;13.90;;;22.90;78.20;;;;;;5038924;28;20377;-75
2023/06/18 09:36:45;;;;;;;14.45;12.95;;;23.00;79.60;;;;;;5038876;28;20119;-75
2023/06/18 09:39:22;;;;;;;14.27;12.88;;;23.10;78.30;;;;;;5042128;28;20124;-74
2023/06/18 09:41:49;;;;;;;14.48;13.02;;;23.10;77.70;;;;;;5040804;28;20473;-74
2023/06/18 09:44:16;;;;;;;13.38;11.48;;;23.10;78.10;;;;;;5036492;28;20025;-75
2023/06/18 09:46:47;;;;;;;13.50;12.13;;;23.20;77.30;;;;;;5030778;28;20041;-74
2023/06/18 09:49:16;;;;;;;13.70;12.40;;;23.30;76.70;;;;;;5036216;28;20033;-74
2023/06/18 09:51:42;;;;;;;13.35;11.95;;;23.40;76.60;;;;;;5041111;28;20218;-74
2023/06/18 09:54:09;;;;;;;14.90;13.43;;;23.40;76.50;;;;;;5037860;28;20481;-73
2023/06/18 09:56:38;;;;;;;13.68;12.20;;;23.50;76.50;;;;;;5035230;28;20029;-74
2023/06/18 09:59:04;;;;;;;13.15;11.82;;;23.50;76.80;;;;;;5037506;28;20068;-75
2023/06/18 10:01:44;;;;;;;12.07;10.40;;;23.50;76.20;;;;;;5043016;28;20063;-73
2023/06/18 10:04:11;;;;;;;11.63;10.43;;;23.60;76.00;;;;;;5041082;28;20032;-74
2023/06/18 10:06:40;;;;;;;12.25;10.60;;;23.60;74.70;;;;;;5044819;28;20049;-74
2023/06/18 10:09:07;;;;;;;10.95;9.80;;;23.70;75.70;;;;;;5047768;28;20599;-74
2023/06/18 10:11:36;;;;;;;10.02;8.55;;;23.70;75.40;;;;;;5045079;28;20037;-74
2023/06/18 10:14:11;;;;;;;9.90;8.18;;;23.90;74.50;;;;;;5048431;28;20724;-74
2023/06/18 10:16:40;;;;;;;9.73;8.20;;;24.00;72.70;;;;;;5034277;28;20037;-74
2023/06/18 10:19:22;;;;;;;9.27;7.32;;;24.10;72.20;;;;;;5040623;28;20029;-74
2023/06/18 10:22:04;;;;;;;9.15;7.80;;;24.40;71.20;;;;;;5042461;28;20036;-75
2023/06/18 10:24:41;;;;;;;9.63;7.85;;;24.80;71.00;;;;;;5042302;28;20393;-74
2023/06/18 10:27:07;;;;;;;11.68;8.55;;;24.90;69.40;;;;;;5042048;28;20021;-74
2023/06/18 10:29:34;;;;;;;12.98;8.55;;;24.80;68.70;;;;;;5039095;28;20114;-74
2023/06/18 10:32:04;;;;;;;11.82;8.20;;;24.80;68.80;;;;;;5043487;28;20383;-73
2023/06/18 10:34:31;;;;;;;8.75;7.80;;;24.70;68.60;;;;;;5042039;28;20036;-74
2023/06/18 10:36:59;;;;;;;10.63;8.65;;;24.70;68.00;;;;;;5040869;28;20110;-74
2023/06/18 10:39:26;;;;;;;10.48;8.18;;;24.60;69.00;;;;;;5041270;28;20748;-73
2023/06/18 10:41:53;;;;;;;9.57;8.48;;;24.60;68.90;;;;;;5048665;28;20036;-73
2023/06/18 10:44:49;;;;;;;10.98;9.88;;;24.70;68.80;;;;;;5043351;28;20496;-74
2023/06/18 10:47:19;;;;;;;11.30;10.15;;;24.60;67.90;;;;;;5041473;28;20071;-72
2023/06/18 10:50:01;;;;;;;13.35;11.07;;;24.60;68.20;;;;;;5041224;28;20582;-73
2023/06/18 10:52:31;;;;;;;12.18;10.98;;;24.40;68.10;;;;;;5038682;28;20132;-73
2023/06/18 10:55:08;;;;;;;12.80;11.45;;;24.30;69.30;;;;;;5046638;28;20127;-73
2023/06/18 10:57:42;;;;;;;13.38;12.00;;;24.10;70.40;;;;;;5046191;28;20554;-73
2023/06/18 11:00:28;;;;;;;11.43;10.32;;;24.10;71.20;;;;;;5046051;28;20024;-73
2023/06/18 11:03:03;;;;;;;12.80;11.30;;;24.30;70.40;;;;;;5045829;28;20047;-73
2023/06/18 11:05:32;;;;;;;15.68;12.05;;;24.30;69.90;;;;;;5036933;28;20370;-74
2023/06/18 11:08:08;;;;;;;12.63;10.73;;;24.10;69.60;;;;;;5041622;28;20041;-74
2023/06/18 11:10:36;;;;;;;13.18;11.77;;;24.20;69.20;;;;;;5040303;28;20022;-74
2023/06/18 11:13:06;;;;;;;13.52;10.82;;;24.10;69.90;;;;;;5047610;28;20116;-74
2023/06/18 11:15:34;;;;;;;13.52;12.07;;;24.10;70.70;;;;;;5045657;28;20045;-74
2023/06/18 11:18:03;;;;;;;13.77;11.75;;;24.30;69.90;;;;;;5038703;28;20036;-73
2023/06/18 11:20:33;;;;;;;13.77;12.27;;;24.40;70.10;;;;;;5045205;28;20082;-73
2023/06/18 11:23:00;;;;;;;17.40;12.02;;;24.70;69.50;;;;;;5039804;28;20025;-74
2023/06/18 11:25:27;;;;;;;14.52;11.98;;;24.70;69.10;;;;;;5040393;28;20029;-74
2023/06/18 11:27:55;;;;;;;13.93;11.32;;;24.70;68.60;;;;;;5036291;28;20037;-74
2023/06/18 11:30:21;;;;;;;12.27;10.98;;;25.50;68.30;;;;;;5026899;28;20036;-74
2023/06/18 11:32:47;;;;;;;13.80;11.60;;;26.10;65.30;;;;;;5027738;28;20115;-73
2023/06/18 11:35:14;;;;;;;12.90;11.52;;;26.80;63.70;;;;;;5026698;28;20389;-73
2023/06/18 11:37:42;;;;;;;13.75;11.32;;;27.10;61.00;;;;;;5017739;28;20048;-74
2023/06/18 11:40:09;;;;;;;13.40;12.00;;;27.20;60.40;;;;;;5016192;28;20075;-74
2023/06/18 11:42:36;;;;;;;12.63;11.23;;;27.30;60.30;;;;;;5022849;28;20033;-75
2023/06/18 11:45:04;;;;;;;13.00;11.40;;;27.50;61.60;;;;;;5041342;28;20055;-75
2023/06/18 11:47:32;;;;;;;12.48;11.07;;;27.50;60.60;;;;;;5043483;28;20037;-74
2023/06/18 11:49:59;;;;;;;13.52;11.98;;;27.60;60.20;;;;;;5047099;28;20029;-75
2023/06/18 11:52:26;;;;;;;12.50;11.10;;;27.40;61.00;;;;;;5045530;28;20064;-75
2023/06/18 11:54:54;;;;;;;13.20;11.00;;;27.50;60.00;;;;;;5046613;28;20013;-75
2023/06/18 11:57:21;;;;;;;14.38;12.85;;;27.60;59.00;;;;;;5040019;28;20039;-75
2023/06/18 11:59:52;;;;;;;14.52;12.18;;;27.60;60.10;;;;;;5041237;28;20029;-74
2023/06/18 12:02:25;;;;;;;13.10;11.77;;;27.40;59.50;;;;;;5042758;28;20115;-75
2023/06/18 12:04:52;;;;;;;13.13;11.70;;;27.70;60.30;;;;;;5041112;28;20021;-74
2023/06/18 12:07:20;;;;;;;12.80;11.55;;;28.00;58.10;;;;;;5044506;28;20040;-75
2023/06/18 12:09:48;;;;;;;12.18;10.90;;;28.00;57.70;;;;;;5035978;28;20109;-74
2023/06/18 12:12:37;;;;;;;13.40;11.98;;;28.20;58.20;;;;;;5040482;28;20045;-74
2023/06/18 12:15:20;;;;;;;11.77;10.57;;;28.10;57.80;;;;;;5040784;28;20417;-74
2023/06/18 12:18:22;;;;;;;12.77;10.97;;;28.10;56.80;;;;;;5040897;28;20493;-75
2023/06/18 12:20:49;;;;;;;13.52;10.55;;;28.20;57.90;;;;;;5037440;28;20026;-75
2023/06/18 12:23:15;;;;;;;11.27;9.82;;;28.20;58.30;;;;;;5044778;28;20116;-74
2023/06/18 12:25:40;;;;;;;13.30;11.60;;;28.10;57.80;;;;;;5039647;28;20102;-76
2023/06/18 12:28:07;;;;;;;11.82;10.65;;;28.10;57.10;;;;;;5043699;28;20134;-75
2023/06/18 12:30:36;;;;;;;12.18;10.98;;;28.10;58.50;;;;;;5036938;28;20037;-77